Time;durP1;ratioP1;P1;durP2;ratioP2;P2;SDS_P1;SDS_P2;PMS_P1;PMS_P2;Temp;Humidity;BMP_temperature;BMP_pressure;BME280_temperature;BME280_humidity;BME280_pressure;Samples;Min_cycle;Max_cycle;Signal;HPM_P1;HPM_P2
2021/09/09 00:00:34;;;;;;;;;;;;;;;25.98;nan;100450.47;5051784;28;19916;-42
2021/09/09 00:03:00;;;;;;;;;;;;;;;25.98;nan;100447.75;5051938;28;19913;-42
2021/09/09 00:05:25;;;;;;;;;;;;;;;25.97;nan;100449.63;5051737;28;19913;-42
2021/09/09 00:07:51;;;;;;;;;;;;;;;25.97;nan;100443.31;5034103;28;19935;-42
2021/09/09 00:10:16;;;;;;;;;;;;;;;25.97;nan;100429.72;5051718;28;19944;-43
2021/09/09 00:12:41;;;;;;;;;;;;;;;25.96;nan;100417.13;5051686;28;19917;-42
2021/09/09 00:15:07;;;;;;;;;;;;;;;25.94;nan;100417.28;5051632;28;19935;-42
2021/09/09 00:17:33;;;;;;;;;;;;;;;25.96;nan;100417.97;5051688;28;19959;-42
2021/09/09 00:19:58;;;;;;;;;;;;;;;25.95;nan;100409.97;5051669;28;19912;-42
2021/09/09 00:22:23;;;;;;;;;;;;;;;25.95;nan;100410.84;5051383;28;20421;-42
2021/09/09 00:24:49;;;;;;;;;;;;;;;25.95;nan;100415.44;5051560;28;19917;-42
2021/09/09 00:27:14;;;;;;;;;;;;;;;25.93;nan;100407.41;5051970;28;19916;-42
2021/09/09 00:29:39;;;;;;;;;;;;;;;25.95;nan;100410.84;5033716;28;19962;-42
2021/09/09 00:32:05;;;;;;;;;;;;;;;25.94;nan;100402.81;5051537;28;19958;-42
2021/09/09 00:34:30;;;;;;;;;;;;;;;25.95;nan;100415.44;5051567;28;19912;-42
2021/09/09 00:36:55;;;;;;;;;;;;;;;25.94;nan;100414.56;5033721;28;20016;-42
2021/09/09 00:39:21;;;;;;;;;;;;;;;25.94;nan;100419.16;5017097;28;19913;-43
2021/09/09 00:41:46;;;;;;;;;;;;;;;25.94;nan;100424.59;5033616;28;20015;-42
2021/09/09 00:44:11;;;;;;;;;;;;;;;;;;5051540;28;19913;-42
2021/09/09 00:46:36;;;;;;;;;;;;;;;25.95;nan;100426.31;5051560;28;19986;-42
2021/09/09 00:49:02;;;;;;;;;;;;;;;25.93;nan;100433.78;5051649;28;20331;-42
2021/09/09 00:51:27;;;;;;;;;;;;;;;25.93;nan;100436.50;5051785;28;20389;-42
2021/09/09 00:53:52;;;;;;;;;;;;;;;25.93;nan;100428.34;5034018;28;20427;-42
2021/09/09 00:56:19;;;;;;;;;;;;;;;25.93;nan;100428.34;5054965;28;19916;-42
2021/09/09 00:58:45;;;;;;;;;;;;;;;25.92;nan;100432.94;5055287;28;19912;-42
2021/09/09 01:01:10;;;;;;;;;;;;;;;;;;5054661;28;20478;-42
2021/09/09 01:03:36;;;;;;;;;;;;;;;25.92;nan;100422.06;5054925;28;19923;-43
2021/09/09 01:06:01;;;;;;;;;;;;;;;25.91;nan;100422.19;5054706;28;19920;-42
2021/09/09 01:08:26;;;;;;;;;;;;;;;25.91;nan;100424.94;5054813;28;19919;-43
2021/09/09 01:10:52;;;;;;;;;;;;;;;25.91;nan;100431.25;5055231;28;19917;-42
2021/09/09 01:13:17;;;;;;;;;;;;;;;;;;5036683;28;19919;-42
2021/09/09 01:15:43;;;;;;;;;;;;;;;25.91;nan;100425.81;5054609;28;19915;-42
2021/09/09 01:18:12;;;;;;;;;;;;;;;25.90;nan;100431.41;5054642;28;20030;-42
2021/09/09 01:20:38;;;;;;;;;;;;;;;25.91;nan;100430.38;5054505;28;19913;-42
2021/09/09 01:23:04;;;;;;;;;;;;;;;25.90;nan;100425.94;5054297;28;20015;-42
2021/09/09 01:25:29;;;;;;;;;;;;;;;25.90;nan;100429.53;5054332;28;20064;-42
2021/09/09 01:27:54;;;;;;;;;;;;;;;25.90;nan;100440.41;5054481;28;19913;-42
2021/09/09 01:30:20;;;;;;;;;;;;;;;25.90;nan;100443.13;5054330;28;19949;-42
2021/09/09 01:32:45;;;;;;;;;;;;;;;25.90;nan;100434.13;5036435;28;19967;-43
2021/09/09 01:35:10;;;;;;;;;;;;;;;25.89;nan;100429.69;5054273;28;19912;-42
2021/09/09 01:37:36;;;;;;;;;;;;;;;25.86;nan;100417.25;5054146;28;19917;-43
2021/09/09 01:40:01;;;;;;;;;;;;;;;25.89;nan;100418.81;5054122;28;19939;-42
2021/09/09 01:42:26;;;;;;;;;;;;;;;25.89;nan;100426.97;5054014;28;19913;-42
2021/09/09 01:44:52;;;;;;;;;;;;;;;25.88;nan;100426.13;5054124;28;19959;-43
2021/09/09 01:47:17;;;;;;;;;;;;;;;25.90;nan;100420.50;5054100;28;19913;-42
2021/09/09 01:49:43;;;;;;;;;;;;;;;25.87;nan;100413.53;5054034;28;19913;-42
2021/09/09 01:52:08;;;;;;;;;;;;;;;25.87;nan;100412.66;5053833;28;19936;-42
2021/09/09 01:54:33;;;;;;;;;;;;;;;25.88;nan;100408.94;5053944;28;19966;-42
2021/09/09 01:56:59;;;;;;;;;;;;;;;25.87;nan;100418.13;5053884;28;20275;-42
2021/09/09 01:59:24;;;;;;;;;;;;;;;25.87;nan;100419.00;5053897;28;19932;-42
2021/09/09 02:01:49;;;;;;;;;;;;;;;25.87;nan;100419.00;5053661;28;19913;-43
2021/09/09 02:04:14;;;;;;;;;;;;;;;;;;5053719;28;19924;-42
2021/09/09 02:06:40;;;;;;;;;;;;;;;25.86;nan;100422.72;5052552;28;19920;-42
2021/09/09 02:09:05;;;;;;;;;;;;;;;25.86;nan;100416.41;5053667;28;20387;-42
2021/09/09 02:11:30;;;;;;;;;;;;;;;;;;5053376;28;20349;-42
2021/09/09 02:13:56;;;;;;;;;;;;;;;25.86;nan;100432.75;5053735;28;19920;-43
2021/09/09 02:16:21;;;;;;;;;;;;;;;25.85;nan;100439.22;5053445;28;20400;-43
2021/09/09 02:18:46;;;;;;;;;;;;;;;;;;5052283;28;19982;-43
2021/09/09 02:21:12;;;;;;;;;;;;;;;25.86;nan;100443.66;5052483;28;19920;-43
2021/09/09 02:23:37;;;;;;;;;;;;;;;25.84;nan;100451.16;5053174;28;20311;-43
2021/09/09 02:26:03;;;;;;;;;;;;;;;25.85;nan;100452.84;5053239;28;19920;-43
2021/09/09 02:28:28;;;;;;;;;;;;;;;25.85;nan;100455.56;5053129;28;20007;-43
2021/09/09 02:30:53;;;;;;;;;;;;;;;25.83;nan;100455.72;5053282;28;19912;-43
2021/09/09 02:33:19;;;;;;;;;;;;;;;25.83;nan;100463.88;5053211;28;19935;-43
2021/09/09 02:35:44;;;;;;;;;;;;;;;25.85;nan;100461.00;5053260;28;20329;-43
2021/09/09 02:38:09;;;;;;;;;;;;;;;25.82;nan;100461.34;5035116;28;19924;-43
2021/09/09 02:40:35;;;;;;;;;;;;;;;25.83;nan;100461.16;5035071;28;19917;-43
2021/09/09 02:43:00;;;;;;;;;;;;;;;;;;5052779;28;19913;-44
2021/09/09 02:45:25;;;;;;;;;;;;;;;25.82;nan;100455.88;5053246;28;19970;-44
2021/09/09 02:47:51;;;;;;;;;;;;;;;25.83;nan;100463.03;5052769;28;20390;-43
2021/09/09 02:50:16;;;;;;;;;;;;;;;25.82;nan;100464.06;5052978;28;20333;-45
2021/09/09 02:52:42;;;;;;;;;;;;;;;25.81;nan;100456.91;5052619;28;19919;-43
2021/09/09 02:55:08;;;;;;;;;;;;;;;25.81;nan;100452.31;5052814;28;19919;-43
2021/09/09 02:57:33;;;;;;;;;;;;;;;25.81;nan;100456.91;5052602;28;19921;-43
2021/09/09 02:59:59;;;;;;;;;;;;;;;25.81;nan;100457.78;5052681;28;19913;-44
2021/09/09 03:02:25;;;;;;;;;;;;;;;25.80;nan;100458.78;5052467;28;19917;-43
2021/09/09 03:04:51;;;;;;;;;;;;;;;25.80;nan;100452.50;5034961;28;19913;-44
2021/09/09 03:07:16;;;;;;;;;;;;;;;25.80;nan;100452.50;5034508;28;19919;-43
2021/09/09 03:09:41;;;;;;;;;;;;;;;25.80;nan;100455.22;5052629;28;20003;-42
2021/09/09 03:12:07;;;;;;;;;;;;;;;25.77;nan;100457.22;5052236;28;19931;-41
2021/09/09 03:14:32;;;;;;;;;;;;;;;25.78;nan;100447.19;5034673;28;19991;-41
2021/09/09 03:16:57;;;;;;;;;;;;;;;25.78;nan;100449.94;5052066;28;19967;-42
2021/09/09 03:19:23;;;;;;;;;;;;;;;;;;5052186;28;20032;-42
2021/09/09 03:21:48;;;;;;;;;;;;;;;25.76;nan;100441.91;5079016;22;20336;-47
2021/09/09 03:24:13;;;;;;;;;;;;;;;;;;5053799;28;19920;-46
2021/09/09 03:26:38;;;;;;;;;;;;;;;25.77;nan;100445.47;5072182;28;19916;-45
2021/09/09 03:29:04;;;;;;;;;;;;;;;25.76;nan;100433.75;5071966;28;19919;-45
2021/09/09 03:31:29;;;;;;;;;;;;;;;25.76;nan;100433.75;5071890;28;19919;-44
2021/09/09 03:33:55;;;;;;;;;;;;;;;25.75;nan;100437.44;5071823;28;19913;-45
2021/09/09 03:36:20;;;;;;;;;;;;;;;25.76;nan;100439.19;5071725;28;20362;-44
2021/09/09 03:38:45;;;;;;;;;;;;;;;25.74;nan;100424.88;5071685;28;19916;-44
2021/09/09 03:41:11;;;;;;;;;;;;;;;25.75;nan;100436.59;5071893;28;20003;-47
2021/09/09 03:43:36;;;;;;;;;;;;;;;25.74;nan;100435.75;5071629;28;19916;-45
2021/09/09 03:46:01;;;;;;;;;;;;;;;25.74;nan;100438.47;5071815;28;19912;-45
2021/09/09 03:48:27;;;;;;;;;;;;;;;25.74;nan;100441.19;5071665;28;19912;-46
2021/09/09 03:50:52;;;;;;;;;;;;;;;25.73;nan;100444.94;5071937;28;19912;-46
2021/09/09 03:53:17;;;;;;;;;;;;;;;25.74;nan;100449.38;5071561;28;19912;-44
2021/09/09 03:55:43;;;;;;;;;;;;;;;25.74;nan;100454.81;5070403;28;19951;-45
2021/09/09 03:58:08;;;;;;;;;;;;;;;25.73;nan;100458.56;5071544;28;19966;-44
2021/09/09 04:00:33;;;;;;;;;;;;;;;25.73;nan;100464.00;5071573;28;19962;-46
2021/09/09 04:02:59;;;;;;;;;;;;;;;25.73;nan;100465.88;5071340;28;19948;-44
2021/09/09 04:05:24;;;;;;;;;;;;;;;25.73;nan;100458.56;5070225;28;19912;-45
2021/09/09 04:07:50;;;;;;;;;;;;;;;25.72;nan;100459.59;5071548;28;19963;-45
2021/09/09 04:10:15;;;;;;;;;;;;;;;;;;5071418;28;19916;-44
2021/09/09 04:12:40;;;;;;;;;;;;;;;25.72;nan;100447.84;5071586;28;19935;-44
2021/09/09 04:15:06;;;;;;;;;;;;;;;25.72;nan;100437.81;5071690;28;19924;-43
2021/09/09 04:17:33;;;;;;;;;;;;;;;25.71;nan;100446.97;5071340;28;19912;-44
2021/09/09 04:19:59;;;;;;;;;;;;;;;25.71;nan;100452.41;5070054;28;19917;-45
2021/09/09 04:22:24;;;;;;;;;;;;;;;25.71;nan;100454.28;5071183;28;20313;-45
2021/09/09 04:24:49;;;;;;;;;;;;;;;25.72;nan;100451.44;5069905;28;20068;-47
2021/09/09 04:27:15;;;;;;;;;;;;;;;25.69;nan;100448.19;5071365;28;19912;-46
2021/09/09 04:29:40;;;;;;;;;;;;;;;25.70;nan;100456.16;5072830;28;19912;-44
2021/09/09 04:32:05;;;;;;;;;;;;;;;25.71;nan;100457.00;5075041;28;19919;-48
2021/09/09 04:34:31;;;;;;;;;;;;;;;25.71;nan;100455.13;5074994;28;19919;-45
2021/09/09 04:36:56;;;;;;;;;;;;;;;25.70;nan;100456.16;5075022;28;19917;-45
2021/09/09 04:39:21;;;;;;;;;;;;;;;25.70;nan;100456.16;5074853;28;19916;-47
2021/09/09 04:41:47;;;;;;;;;;;;;;;25.70;nan;100453.44;5074992;28;19970;-44
2021/09/09 04:44:12;;;;;;;;;;;;;;;25.70;nan;100455.31;5074821;28;19913;-46
2021/09/09 04:46:38;;;;;;;;;;;;;;;25.69;nan;100450.91;5074805;28;19912;-46
2021/09/09 04:49:03;;;;;;;;;;;;;;;25.68;nan;100450.06;5074770;28;19916;-47
2021/09/09 04:51:28;;;;;;;;;;;;;;;25.69;nan;100454.47;5073488;28;19913;-44
2021/09/09 04:53:53;;;;;;;;;;;;;;;25.70;nan;100452.59;5074513;28;19961;-45
2021/09/09 04:56:19;;;;;;;;;;;;;;;25.68;nan;100458.22;5074633;28;19999;-47
2021/09/09 04:58:44;;;;;;;;;;;;;;;25.69;nan;100465.34;5074744;28;20049;-49
2021/09/09 05:01:09;;;;;;;;;;;;;;;25.69;nan;100454.47;5074490;28;19912;-43
2021/09/09 05:03:35;;;;;;;;;;;;;;;;;;5074573;28;19913;-43
2021/09/09 05:06:00;;;;;;;;;;;;;;;25.69;nan;100450.91;5074440;28;20011;-45
2021/09/09 05:08:25;;;;;;;;;;;;;;;25.69;nan;100459.91;5074472;28;19913;-48
2021/09/09 05:10:51;;;;;;;;;;;;;;;25.68;nan;100458.22;5074533;28;19916;-46
2021/09/09 05:13:16;;;;;;;;;;;;;;;25.69;nan;100464.50;5073005;28;20440;-47
2021/09/09 05:15:41;;;;;;;;;;;;;;;25.69;nan;100462.63;5074326;28;20281;-47
2021/09/09 05:18:07;;;;;;;;;;;;;;;25.69;nan;100465.34;5074219;28;19916;-44
2021/09/09 05:20:32;;;;;;;;;;;;;;;25.69;nan;100461.78;5074699;28;19916;-48
2021/09/09 05:22:57;;;;;;;;;;;;;;;25.68;nan;100460.94;5073907;28;19923;-47
2021/09/09 05:25:23;;;;;;;;;;;;;;;25.68;nan;100466.38;5072778;28;19943;-45
2021/09/09 05:27:48;;;;;;;;;;;;;;;25.68;nan;100460.94;5074134;28;19966;-48
2021/09/09 05:30:14;;;;;;;;;;;;;;;25.68;nan;100463.66;5073999;28;19919;-46
2021/09/09 05:32:39;;;;;;;;;;;;;;;25.66;nan;100454.78;5074047;28;19958;-48
2021/09/09 05:35:05;;;;;;;;;;;;;;;25.67;nan;100464.66;5073947;28;20302;-45
2021/09/09 05:37:30;;;;;;;;;;;;;;;25.68;nan;100463.66;5072615;28;19913;-45
2021/09/09 05:39:55;;;;;;;;;;;;;;;25.68;nan;100469.09;5072427;28;19920;-46
2021/09/09 05:42:21;;;;;;;;;;;;;;;25.67;nan;100461.94;5073859;28;19913;-46
2021/09/09 05:44:46;;;;;;;;;;;;;;;25.67;nan;100466.53;5072581;28;19916;-46
2021/09/09 05:47:12;;;;;;;;;;;;;;;25.65;nan;100469.44;5072539;28;19913;-44
2021/09/09 05:49:37;;;;;;;;;;;;;;;25.68;nan;100473.69;5073858;28;19912;-44
2021/09/09 05:52:03;;;;;;;;;;;;;;;25.67;nan;100474.69;5073762;28;19912;-47
2021/09/09 05:54:29;;;;;;;;;;;;;;;25.66;nan;100476.56;5073780;28;20397;-46
2021/09/09 05:56:54;;;;;;;;;;;;;;;;;;5073743;28;19913;-46
2021/09/09 05:59:19;;;;;;;;;;;;;;;25.67;nan;100482.88;5073478;28;19966;-43
2021/09/09 06:01:46;;;;;;;;;;;;;;;25.66;nan;100475.72;5072105;28;19966;-45
2021/09/09 06:04:13;;;;;;;;;;;;;;;;;;5073409;28;19913;-47
2021/09/09 06:06:39;;;;;;;;;;;;;;;25.66;nan;100492.91;5073168;28;20053;-46
2021/09/09 06:09:04;;;;;;;;;;;;;;;25.65;nan;100499.38;5072022;28;19964;-45
2021/09/09 06:11:29;;;;;;;;;;;;;;;25.65;nan;100495.81;5073222;28;19913;-49
2021/09/09 06:13:55;;;;;;;;;;;;;;;25.65;nan;100501.25;5073279;28;20340;-48
2021/09/09 06:16:20;;;;;;;;;;;;;;;25.65;nan;100501.25;5073060;28;20439;-44
2021/09/09 06:18:45;;;;;;;;;;;;;;;25.65;nan;100502.09;5073161;28;19916;-46
2021/09/09 06:21:11;;;;;;;;;;;;;;;25.64;nan;100494.06;5073059;28;19924;-46
2021/09/09 06:23:36;;;;;;;;;;;;;;;25.64;nan;100494.06;5072916;28;19920;-43
2021/09/09 06:26:01;;;;;;;;;;;;;;;25.64;nan;100494.97;5072906;28;19916;-48
2021/09/09 06:28:26;;;;;;;;;;;;;;;25.64;nan;100492.22;5071624;28;19956;-47
2021/09/09 06:30:52;;;;;;;;;;;;;;;25.64;nan;100491.34;5073269;28;20394;-45
2021/09/09 06:33:17;;;;;;;;;;;;;;;25.63;nan;100484.22;5072764;28;19913;-49
2021/09/09 06:35:45;;;;;;;;;;;;;;;25.63;nan;100470.59;5072794;28;19913;-46
2021/09/09 06:38:11;;;;;;;;;;;;;;;25.62;nan;100486.09;5072685;28;20028;-44
2021/09/09 06:40:36;;;;;;;;;;;;;;;25.62;nan;100483.38;5072768;28;19916;-46
2021/09/09 06:43:01;;;;;;;;;;;;;;;25.62;nan;100480.66;5071105;28;19913;-46
2021/09/09 06:45:27;;;;;;;;;;;;;;;25.63;nan;100481.50;5072625;28;19920;-45
2021/09/09 06:47:52;;;;;;;;;;;;;;;25.62;nan;100475.19;5072572;28;19913;-46
2021/09/09 06:50:17;;;;;;;;;;;;;;;25.62;nan;100475.19;5072629;28;19912;-47
2021/09/09 06:52:43;;;;;;;;;;;;;;;25.62;nan;100474.34;5071702;28;19916;-45
2021/09/09 06:55:08;;;;;;;;;;;;;;;25.62;nan;100480.66;5072565;28;19927;-46
2021/09/09 06:57:34;;;;;;;;;;;;;;;25.63;nan;100487.78;5072639;28;19973;-48
2021/09/09 06:59:59;;;;;;;;;;;;;;;25.62;nan;100483.38;5072484;28;20342;-47
2021/09/09 07:02:24;;;;;;;;;;;;;;;25.63;nan;100481.50;5071926;28;19913;-44
2021/09/09 07:04:50;;;;;;;;;;;;;;;25.63;nan;100476.03;5072117;28;19920;-48
2021/09/09 07:07:15;;;;;;;;;;;;;;;25.63;nan;100481.50;5072061;28;19999;-45
2021/09/09 07:09:40;;;;;;;;;;;;;;;25.62;nan;100480.66;5072251;28;20374;-48
2021/09/09 07:12:06;;;;;;;;;;;;;;;25.64;nan;100478.63;5072125;28;19920;-48
2021/09/09 07:14:31;;;;;;;;;;;;;;;25.64;nan;100475.03;5072247;28;19948;-46
2021/09/09 07:16:56;;;;;;;;;;;;;;;25.64;nan;100475.91;5071931;28;19970;-44
2021/09/09 07:19:22;;;;;;;;;;;;;;;25.65;nan;100485.75;5072170;28;19927;-47
2021/09/09 07:21:50;;;;;;;;;;;;;;;25.66;nan;100482.03;5071669;28;19916;-45
2021/09/09 07:24:19;;;;;;;;;;;;;;;25.67;nan;100483.72;5072114;28;19924;-46
2021/09/09 07:26:48;;;;;;;;;;;;;;;25.69;nan;100478.13;5070494;28;19913;-46
2021/09/09 07:29:14;;;;;;;;;;;;;;;25.69;nan;100476.25;5071853;28;19961;-42
2021/09/09 07:31:40;;;;;;;;;;;;;;;25.71;nan;100476.06;5071784;28;19991;-44
2021/09/09 07:34:05;;;;;;;;;;;;;;;25.73;nan;100484.94;5070629;28;19919;-46
2021/09/09 07:36:31;;;;;;;;;;;;;;;;;;5071773;28;19926;-47
2021/09/09 07:38:56;;;;;;;;;;;;;;;25.76;nan;100487.34;5071731;28;19917;-45
2021/09/09 07:41:21;;;;;;;;;;;;;;;25.78;nan;100485.31;5071823;28;19935;-46
2021/09/09 07:43:46;;;;;;;;;;;;;;;25.80;nan;100490.63;5071980;28;19979;-48
2021/09/09 07:46:12;;;;;;;;;;;;;;;25.81;nan;100495.03;5070431;28;20435;-43
2021/09/09 07:48:37;;;;;;;;;;;;;;;25.83;nan;100492.97;5071711;28;19916;-45
2021/09/09 07:51:02;;;;;;;;;;;;;;;25.83;nan;100493.84;5071716;28;19912;-45
2021/09/09 07:53:28;;;;;;;;;;;;;;;25.84;nan;100487.41;5071449;28;20297;-45
2021/09/09 07:55:53;;;;;;;;;;;;;;;25.86;nan;100488.06;5071488;28;19919;-45
2021/09/09 07:58:19;;;;;;;;;;;;;;;25.87;nan;100480.75;5071531;28;19912;-46
2021/09/09 08:00:44;;;;;;;;;;;;;;;25.86;nan;100488.06;5071754;28;19982;-45
2021/09/09 08:03:09;;;;;;;;;;;;;;;25.85;nan;100480.91;5071469;28;19912;-49
2021/09/09 08:05:34;;;;;;;;;;;;;;;25.85;nan;100489.09;5074826;28;19912;-48
2021/09/09 08:08:00;;;;;;;;;;;;;;;25.87;nan;100481.63;5075731;28;20393;-49
2021/09/09 08:10:25;;;;;;;;;;;;;;;25.87;nan;100481.63;5075774;28;20012;-47
2021/09/09 08:12:50;;;;;;;;;;;;;;;25.87;nan;100481.63;5074193;28;19913;-45
2021/09/09 08:15:16;;;;;;;;;;;;;;;25.89;nan;100486.88;5075628;28;20350;-46
2021/09/09 08:17:42;;;;;;;;;;;;;;;25.89;nan;100493.19;5075352;28;20164;-47
2021/09/09 08:20:08;;;;;;;;;;;;;;;25.90;nan;100491.31;5075446;28;19921;-44
2021/09/09 08:22:34;;;;;;;;;;;;;;;25.89;nan;100493.19;5071339;28;19916;-48
2021/09/09 08:24:59;;;;;;;;;;;;;;;25.91;nan;100493.00;5074716;28;19927;-45
2021/09/09 08:27:25;;;;;;;;;;;;;;;25.91;nan;100495.72;5075350;28;19947;-46
2021/09/09 08:29:50;;;;;;;;;;;;;;;25.92;nan;100486.56;5075284;28;19913;-48
2021/09/09 08:32:16;;;;;;;;;;;;;;;25.92;nan;100492.84;5075253;28;19916;-47
2021/09/09 08:34:41;;;;;;;;;;;;;;;25.94;nan;100495.41;5075102;28;19913;-44
2021/09/09 08:37:06;;;;;;;;;;;;;;;25.95;nan;100488.97;5075099;28;20336;-45
2021/09/09 08:39:32;;;;;;;;;;;;;;;;;;5074998;28;19963;-47
2021/09/09 08:41:57;;;;;;;;;;;;;;;25.97;nan;100486.91;5075245;28;19912;-45
2021/09/09 08:44:22;;;;;;;;;;;;;;;25.99;nan;100482.16;5074955;28;20413;-45
2021/09/09 08:46:50;;;;;;;;;;;;;;;26.00;nan;100489.28;5074891;28;20389;-47
2021/09/09 08:49:17;;;;;;;;;;;;;;;26.01;nan;100491.00;5074811;28;19912;-46
2021/09/09 08:51:42;;;;;;;;;;;;;;;26.03;nan;100491.69;5074989;28;19913;-46
2021/09/09 08:54:07;;;;;;;;;;;;;;;26.04;nan;100489.81;5073406;28;19924;-48
2021/09/09 08:56:33;;;;;;;;;;;;;;;26.03;nan;100494.41;5073459;28;19942;-47
2021/09/09 08:58:58;;;;;;;;;;;;;;;26.06;nan;100496.78;5073405;28;19923;-45
2021/09/09 09:01:24;;;;;;;;;;;;;;;26.07;nan;100494.94;5074737;28;19912;-47
2021/09/09 09:03:53;;;;;;;;;;;;;;;26.07;nan;100495.78;5074427;28;19970;-44
2021/09/09 09:06:18;;;;;;;;;;;;;;;;;;5073275;28;19916;-47
2021/09/09 09:08:50;;;;;;;;;;;;;;;26.10;nan;100495.47;5074390;28;19912;-46
2021/09/09 09:11:22;;;;;;;;;;;;;;;26.11;nan;100497.16;5073194;28;19913;-46
2021/09/09 09:13:48;;;;;;;;;;;;;;;26.12;nan;100498.00;5074422;28;19939;-45
2021/09/09 09:16:14;;;;;;;;;;;;;;;26.11;nan;100486.25;5073811;28;20365;-45
2021/09/09 09:18:41;;;;;;;;;;;;;;;26.14;nan;100493.25;5074379;28;19925;-46
2021/09/09 09:21:06;;;;;;;;;;;;;;;26.13;nan;100495.09;5074475;28;19920;-46
2021/09/09 09:23:31;;;;;;;;;;;;;;;26.12;nan;100487.94;5074523;28;19917;-45
2021/09/09 09:25:59;;;;;;;;;;;;;;;26.14;nan;100485.06;5072914;28;19929;-46
2021/09/09 09:28:39;;;;;;;;;;;;;;;26.14;nan;100485.94;5074312;28;19916;-47
2021/09/09 09:31:11;;;;;;;;;;;;;;;26.15;nan;100481.31;5074107;28;19912;-46
2021/09/09 09:33:38;;;;;;;;;;;;;;;26.15;nan;100482.19;5072918;28;19935;-44
2021/09/09 09:36:22;;;;;;;;;;;;;;;26.15;nan;100482.19;5072859;28;20509;-46
2021/09/09 09:38:49;;;;;;;;;;;;;;;26.16;nan;100477.56;5074058;28;19916;-46
2021/09/09 09:41:17;;;;;;;;;;;;;;;26.17;nan;100484.72;5073993;28;19960;-47
2021/09/09 09:43:49;;;;;;;;;;;;;;;26.16;nan;100483.88;5074246;28;19912;-46
2021/09/09 09:46:25;;;;;;;;;;;;;;;26.17;nan;100485.56;5074086;28;19913;-47
2021/09/09 09:48:50;;;;;;;;;;;;;;;26.18;nan;100491.88;5073911;28;19999;-46
2021/09/09 09:51:25;;;;;;;;;;;;;;;26.18;nan;100476.41;5073702;28;19959;-46
2021/09/09 09:54:05;;;;;;;;;;;;;;;26.18;nan;100481.84;5073602;28;19938;-47
2021/09/09 09:56:35;;;;;;;;;;;;;;;26.19;nan;100480.81;5073742;28;19920;-44
2021/09/09 09:59:00;;;;;;;;;;;;;;;26.20;nan;100478.94;5073596;28;19916;-45
2021/09/09 10:01:25;;;;;;;;;;;;;;;26.19;nan;100483.53;5073384;28;19912;-46
2021/09/09 10:03:51;;;;;;;;;;;;;;;26.20;nan;100478.94;5073386;28;20003;-46
2021/09/09 10:06:16;;;;;;;;;;;;;;;26.20;nan;100479.78;5071860;28;20015;-46
2021/09/09 10:08:44;;;;;;;;;;;;;;;26.21;nan;100476.06;5071989;28;19962;-46
2021/09/09 10:11:10;;;;;;;;;;;;;;;26.22;nan;100485.94;5073184;28;19913;-47
2021/09/09 10:13:37;;;;;;;;;;;;;;;26.21;nan;100486.97;5073350;28;19919;-46
2021/09/09 10:16:02;;;;;;;;;;;;;;;26.22;nan;100485.09;5073492;28;20294;-45
2021/09/09 10:18:27;;;;;;;;;;;;;;;26.24;nan;100480.31;5073502;28;20366;-45
2021/09/09 10:20:53;;;;;;;;;;;;;;;26.21;nan;100475.19;5072911;28;19916;-47
2021/09/09 10:23:20;;;;;;;;;;;;;;;26.23;nan;100482.19;5072764;28;19920;-44
2021/09/09 10:25:49;;;;;;;;;;;;;;;26.23;nan;100474.00;5073043;28;20011;-48
2021/09/09 10:28:55;;;;;;;;;;;;;;;26.22;nan;100475.03;5072014;28;19913;-47
2021/09/09 10:31:20;;;;;;;;;;;;;;;26.23;nan;100479.44;5072261;28;19917;-48
2021/09/09 10:33:47;;;;;;;;;;;;;;;26.24;nan;100485.75;5072824;28;19912;-45
2021/09/09 10:36:12;;;;;;;;;;;;;;;;;;5072773;28;19940;-49
2021/09/09 10:38:40;;;;;;;;;;;;;;;26.24;nan;100478.44;5072772;28;19975;-49
2021/09/09 10:41:05;;;;;;;;;;;;;;;26.24;nan;100485.75;5072713;28;19919;-46
2021/09/09 10:43:30;;;;;;;;;;;;;;;26.25;nan;100493.78;5072782;28;19913;-48
2021/09/09 10:46:03;;;;;;;;;;;;;;;26.24;nan;100486.59;5072461;28;20389;-47
2021/09/09 10:48:30;;;;;;;;;;;;;;;26.24;nan;100470.25;5072997;28;20342;-45
2021/09/09 10:50:59;;;;;;;;;;;;;;;26.23;nan;100482.19;5072483;28;19916;-48
2021/09/09 10:53:35;;;;;;;;;;;;;;;26.25;nan;100488.31;5072474;28;20338;-45
2021/09/09 10:56:14;;;;;;;;;;;;;;;26.25;nan;100471.97;5072969;28;19936;-46
2021/09/09 10:58:40;;;;;;;;;;;;;;;26.25;nan;100482.88;5072372;28;19999;-48
2021/09/09 11:01:06;;;;;;;;;;;;;;;26.24;nan;100478.44;5072372;28;20058;-47
2021/09/09 11:03:39;;;;;;;;;;;;;;;26.27;nan;100473.69;5071044;28;19912;-45
2021/09/09 11:06:06;;;;;;;;;;;;;;;26.27;nan;100479.13;5072235;28;19919;-49
2021/09/09 11:08:32;;;;;;;;;;;;;;;26.27;nan;100485.41;5072321;28;19912;-49
2021/09/09 11:10:57;;;;;;;;;;;;;;;26.27;nan;100477.25;5072046;28;19920;-48
2021/09/09 11:13:26;;;;;;;;;;;;;;;26.27;nan;100479.13;5072084;28;19913;-48
2021/09/09 11:15:52;;;;;;;;;;;;;;;26.28;nan;100475.38;5070823;28;20598;-49
2021/09/09 11:18:31;;;;;;;;;;;;;;;26.27;nan;100460.06;5070865;28;19919;-48
2021/09/09 11:21:04;;;;;;;;;;;;;;;26.28;nan;100464.47;5072049;28;20417;-49
2021/09/09 11:23:29;;;;;;;;;;;;;;;26.28;nan;100469.91;5071766;28;20003;-46
2021/09/09 11:25:55;;;;;;;;;;;;;;;26.28;nan;100462.59;5072352;28;20385;-47
2021/09/09 11:28:20;;;;;;;;;;;;;;;26.28;nan;100465.31;5071984;28;20431;-49
2021/09/09 11:31:04;;;;;;;;;;;;;;;26.29;nan;100468.88;5071945;28;20333;-45
2021/09/09 11:33:29;;;;;;;;;;;;;;;;;;5071822;28;19913;-49
2021/09/09 11:36:02;;;;;;;;;;;;;;;26.28;nan;100473.50;5071752;28;20369;-46
2021/09/09 11:38:33;;;;;;;;;;;;;;;26.28;nan;100462.59;5071783;28;19913;-46
2021/09/09 11:41:06;;;;;;;;;;;;;;;26.29;nan;100458.00;5070461;28;19928;-48
2021/09/09 11:43:31;;;;;;;;;;;;;;;26.28;nan;100465.31;5071757;28;20452;-48
2021/09/09 11:45:56;;;;;;;;;;;;;;;26.30;nan;100454.28;5071818;28;19951;-47
2021/09/09 11:48:22;;;;;;;;;;;;;;;26.29;nan;100447.09;5071651;28;19912;-47
2021/09/09 11:50:48;;;;;;;;;;;;;;;26.29;nan;100452.53;5071931;28;19919;-43
2021/09/09 11:53:20;;;;;;;;;;;;;;;26.29;nan;100452.53;5071747;28;19914;-46
2021/09/09 11:55:45;;;;;;;;;;;;;;;26.31;nan;100447.78;5070494;28;19912;-46
2021/09/09 11:58:29;;;;;;;;;;;;;;;26.30;nan;100441.50;5071558;28;19916;-45
2021/09/09 12:00:54;;;;;;;;;;;;;;;26.30;nan;100444.22;5070361;28;19916;-45
2021/09/09 12:03:20;;;;;;;;;;;;;;;26.30;nan;100452.38;5071379;28;20025;-48
2021/09/09 12:05:45;;;;;;;;;;;;;;;26.31;nan;100445.91;5070250;28;19921;-48
2021/09/09 12:08:10;;;;;;;;;;;;;;;26.32;nan;100438.59;5071462;28;19916;-46
2021/09/09 12:10:36;;;;;;;;;;;;;;;26.32;nan;100446.75;5071661;28;19913;-45
2021/09/09 12:13:04;;;;;;;;;;;;;;;26.32;nan;100441.31;5071392;28;19991;-46
2021/09/09 12:15:29;;;;;;;;;;;;;;;26.32;nan;100452.22;5071488;28;19944;-46
2021/09/09 12:18:06;;;;;;;;;;;;;;;26.31;nan;100436.88;5071390;28;19967;-45
2021/09/09 12:20:31;;;;;;;;;;;;;;;26.32;nan;100433.13;5071488;28;20249;-48
2021/09/09 12:22:57;;;;;;;;;;;;;;;26.31;nan;100439.63;5071082;28;19917;-45
2021/09/09 12:25:38;;;;;;;;;;;;;;;26.33;nan;100437.56;5071456;28;19917;-48
2021/09/09 12:28:16;;;;;;;;;;;;;;;26.32;nan;100433.97;5071352;28;19912;-47
2021/09/09 12:30:47;;;;;;;;;;;;;;;26.32;nan;100428.53;5071580;28;19913;-46
2021/09/09 12:33:15;;;;;;;;;;;;;;;26.33;nan;100432.09;5071133;28;20286;-48
2021/09/09 12:35:58;;;;;;;;;;;;;;;26.32;nan;100428.53;5071293;28;19919;-46
2021/09/09 12:38:34;;;;;;;;;;;;;;;26.33;nan;100422.09;5071268;28;19963;-47
2021/09/09 12:41:00;;;;;;;;;;;;;;;26.33;nan;100424.81;5071278;28;19924;-49
2021/09/09 12:43:30;;;;;;;;;;;;;;;26.33;nan;100423.94;5070919;28;19912;-48
2021/09/09 12:45:56;;;;;;;;;;;;;;;26.33;nan;100418.47;5070015;28;19958;-45
2021/09/09 12:48:22;;;;;;;;;;;;;;;26.34;nan;100403.84;5071240;28;19920;-47
2021/09/09 12:50:55;;;;;;;;;;;;;;;26.34;nan;100417.47;5072950;28;19913;-45
2021/09/09 12:53:21;;;;;;;;;;;;;;;26.35;nan;100411.00;5074885;28;20007;-46
2021/09/09 12:55:46;;;;;;;;;;;;;;;26.35;nan;100416.44;5075012;28;20042;-45
2021/09/09 12:58:15;;;;;;;;;;;;;;;26.34;nan;100409.31;5073328;28;20390;-46
2021/09/09 13:00:40;;;;;;;;;;;;;;;26.34;nan;100412.03;5074849;28;19939;-45
2021/09/09 13:03:06;;;;;;;;;;;;;;;26.34;nan;100409.31;5074522;28;20386;-44